Maldives Meteorological Service

METAR

Station
VRMM
METAR VRMM 270900Z 30006KT 9999 FEW018 BKN270 31/25 Q1009 NOSIG=
VRMH
METAR VRMH 270900Z 30007KT 9999 SCT018 32/26 Q1009=
VRMK
METAR VRMK 270900Z VRB01KT 9999 FEW018TCU BKN260 32/26 Q1009=
VRMT
METAR VRMT 270800Z 20005KT 6000 –SHRA SCT017 FEW018CB BKN250 29/26 Q1010 CB N,S,W,NW=
VRMG
METAR VRMG 270900Z 35004KT 9999 FEW017 FEW018CB BKN260 31/25 Q1009 CB E NOSIG=
Last Updated : 2019-06-27 13:59:03

SPECI

Station
VRMM
VRMH
VRMK
VRMT
SPECI VRMT 270851Z 29006KT 6000 -SHRA FEW010 SCT016 FEW017CB OVC100 26/26 Q1009 RESHRA CB N,W,NW=
VRMG
Last Updated : 2019-06-27 13:59:03